sensor_id;sensor_type;location;lat;lon;timestamp;P1;durP1;ratioP1;P2;durP2;ratioP2
62058;SDS011;48017;51.064;7.014;2022-07-06T00:02:21;6.05;;;1.50;;
62058;SDS011;48017;51.064;7.014;2022-07-06T00:04:47;4.35;;;1.50;;
62058;SDS011;48017;51.064;7.014;2022-07-06T00:07:12;7.72;;;1.60;;
62058;SDS011;48017;51.064;7.014;2022-07-06T00:09:39;6.53;;;1.75;;
62058;SDS011;48017;51.064;7.014;2022-07-06T00:12:05;4.78;;;1.80;;
62058;SDS011;48017;51.064;7.014;2022-07-06T00:14:31;5.75;;;1.73;;
62058;SDS011;48017;51.064;7.014;2022-07-06T00:16:56;5.05;;;1.67;;
62058;SDS011;48017;51.064;7.014;2022-07-06T00:19:21;5.15;;;1.90;;
62058;SDS011;48017;51.064;7.014;2022-07-06T00:21:47;3.97;;;1.70;;
62058;SDS011;48017;51.064;7.014;2022-07-06T00:24:12;5.47;;;1.80;;
62058;SDS011;48017;51.064;7.014;2022-07-06T00:26:37;5.05;;;1.65;;
62058;SDS011;48017;51.064;7.014;2022-07-06T00:29:03;5.53;;;1.60;;
62058;SDS011;48017;51.064;7.014;2022-07-06T00:31:28;4.22;;;1.80;;
62058;SDS011;48017;51.064;7.014;2022-07-06T00:33:54;3.90;;;1.60;;
62058;SDS011;48017;51.064;7.014;2022-07-06T00:36:19;4.13;;;1.70;;
62058;SDS011;48017;51.064;7.014;2022-07-06T00:38:44;5.18;;;1.92;;
62058;SDS011;48017;51.064;7.014;2022-07-06T00:41:10;6.00;;;1.90;;
62058;SDS011;48017;51.064;7.014;2022-07-06T00:46:17;5.53;;;1.70;;
62058;SDS011;48017;51.064;7.014;2022-07-06T00:48:42;5.82;;;2.08;;
62058;SDS011;48017;51.064;7.014;2022-07-06T00:51:08;5.97;;;1.85;;
62058;SDS011;48017;51.064;7.014;2022-07-06T00:53:33;5.68;;;1.50;;
62058;SDS011;48017;51.064;7.014;2022-07-06T00:55:59;5.10;;;1.77;;
62058;SDS011;48017;51.064;7.014;2022-07-06T00:58:25;3.22;;;1.38;;
62058;SDS011;48017;51.064;7.014;2022-07-06T01:00:51;3.58;;;1.52;;
62058;SDS011;48017;51.064;7.014;2022-07-06T01:03:16;3.95;;;1.65;;
62058;SDS011;48017;51.064;7.014;2022-07-06T01:05:41;4.82;;;1.50;;
62058;SDS011;48017;51.064;7.014;2022-07-06T01:08:07;5.20;;;1.42;;
62058;SDS011;48017;51.064;7.014;2022-07-06T01:10:32;5.60;;;1.50;;
62058;SDS011;48017;51.064;7.014;2022-07-06T01:12:58;4.65;;;1.70;;
62058;SDS011;48017;51.064;7.014;2022-07-06T01:15:23;5.07;;;1.77;;
62058;SDS011;48017;51.064;7.014;2022-07-06T01:17:50;4.20;;;1.60;;
62058;SDS011;48017;51.064;7.014;2022-07-06T01:20:17;4.85;;;1.58;;
62058;SDS011;48017;51.064;7.014;2022-07-06T01:22:44;4.40;;;1.85;;
62058;SDS011;48017;51.064;7.014;2022-07-06T01:25:11;6.38;;;1.90;;
62058;SDS011;48017;51.064;7.014;2022-07-06T01:27:37;4.90;;;1.77;;
62058;SDS011;48017;51.064;7.014;2022-07-06T01:30:08;3.92;;;1.70;;
62058;SDS011;48017;51.064;7.014;2022-07-06T01:32:38;4.60;;;1.85;;
62058;SDS011;48017;51.064;7.014;2022-07-06T01:35:08;11.57;;;1.80;;
62058;SDS011;48017;51.064;7.014;2022-07-06T01:37:35;5.97;;;1.63;;
62058;SDS011;48017;51.064;7.014;2022-07-06T01:40:01;6.70;;;1.90;;
62058;SDS011;48017;51.064;7.014;2022-07-06T01:42:28;6.82;;;2.53;;
62058;SDS011;48017;51.064;7.014;2022-07-06T01:44:53;13.43;;;5.90;;
62058;SDS011;48017;51.064;7.014;2022-07-06T01:47:19;9.68;;;2.83;;
62058;SDS011;48017;51.064;7.014;2022-07-06T01:49:45;5.20;;;2.17;;
62058;SDS011;48017;51.064;7.014;2022-07-06T01:52:10;4.72;;;1.90;;
62058;SDS011;48017;51.064;7.014;2022-07-06T01:54:35;4.68;;;2.00;;
62058;SDS011;48017;51.064;7.014;2022-07-06T01:57:01;6.00;;;2.17;;
62058;SDS011;48017;51.064;7.014;2022-07-06T01:59:26;5.90;;;2.22;;
62058;SDS011;48017;51.064;7.014;2022-07-06T02:01:52;5.82;;;2.00;;
62058;SDS011;48017;51.064;7.014;2022-07-06T02:04:17;3.30;;;1.70;;
62058;SDS011;48017;51.064;7.014;2022-07-06T02:06:42;5.30;;;1.88;;
62058;SDS011;48017;51.064;7.014;2022-07-06T02:09:08;7.07;;;2.35;;
62058;SDS011;48017;51.064;7.014;2022-07-06T02:11:33;6.00;;;2.25;;
62058;SDS011;48017;51.064;7.014;2022-07-06T02:13:58;6.35;;;1.90;;
62058;SDS011;48017;51.064;7.014;2022-07-06T02:16:24;7.05;;;2.20;;
62058;SDS011;48017;51.064;7.014;2022-07-06T02:18:49;6.57;;;2.10;;
62058;SDS011;48017;51.064;7.014;2022-07-06T02:21:14;5.32;;;2.22;;
62058;SDS011;48017;51.064;7.014;2022-07-06T02:23:40;5.47;;;2.30;;
62058;SDS011;48017;51.064;7.014;2022-07-06T02:26:05;6.65;;;2.50;;
62058;SDS011;48017;51.064;7.014;2022-07-06T02:28:31;8.60;;;2.33;;
62058;SDS011;48017;51.064;7.014;2022-07-06T02:30:56;6.70;;;2.10;;
62058;SDS011;48017;51.064;7.014;2022-07-06T02:33:22;6.95;;;2.17;;
62058;SDS011;48017;51.064;7.014;2022-07-06T02:35:47;6.18;;;2.08;;
62058;SDS011;48017;51.064;7.014;2022-07-06T02:38:13;7.70;;;2.38;;
62058;SDS011;48017;51.064;7.014;2022-07-06T02:40:38;6.32;;;2.20;;
62058;SDS011;48017;51.064;7.014;2022-07-06T02:43:04;6.38;;;2.10;;
62058;SDS011;48017;51.064;7.014;2022-07-06T02:45:30;7.22;;;2.40;;
62058;SDS011;48017;51.064;7.014;2022-07-06T02:47:55;6.60;;;2.15;;
62058;SDS011;48017;51.064;7.014;2022-07-06T02:50:22;5.43;;;2.60;;
62058;SDS011;48017;51.064;7.014;2022-07-06T02:52:48;7.15;;;2.90;;
62058;SDS011;48017;51.064;7.014;2022-07-06T02:55:13;5.50;;;2.40;;
62058;SDS011;48017;51.064;7.014;2022-07-06T02:57:39;8.02;;;2.63;;
62058;SDS011;48017;51.064;7.014;2022-07-06T03:00:04;6.55;;;2.70;;
62058;SDS011;48017;51.064;7.014;2022-07-06T03:02:31;7.22;;;2.50;;
62058;SDS011;48017;51.064;7.014;2022-07-06T03:04:56;5.65;;;2.50;;
62058;SDS011;48017;51.064;7.014;2022-07-06T03:07:22;7.88;;;2.70;;
62058;SDS011;48017;51.064;7.014;2022-07-06T03:09:47;5.18;;;2.80;;
62058;SDS011;48017;51.064;7.014;2022-07-06T03:12:13;4.80;;;2.70;;
62058;SDS011;48017;51.064;7.014;2022-07-06T03:14:39;5.15;;;2.90;;
62058;SDS011;48017;51.064;7.014;2022-07-06T03:17:04;9.15;;;3.03;;
62058;SDS011;48017;51.064;7.014;2022-07-06T03:19:29;12.82;;;6.43;;
62058;SDS011;48017;51.064;7.014;2022-07-06T03:21:55;12.07;;;6.22;;
62058;SDS011;48017;51.064;7.014;2022-07-06T03:24:20;26.70;;;13.20;;
62058;SDS011;48017;51.064;7.014;2022-07-06T03:26:46;14.18;;;5.65;;
62058;SDS011;48017;51.064;7.014;2022-07-06T03:29:11;11.60;;;4.15;;
62058;SDS011;48017;51.064;7.014;2022-07-06T03:31:36;6.05;;;3.15;;
62058;SDS011;48017;51.064;7.014;2022-07-06T03:34:01;6.53;;;3.45;;
62058;SDS011;48017;51.064;7.014;2022-07-06T03:36:27;8.45;;;3.60;;
62058;SDS011;48017;51.064;7.014;2022-07-06T03:38:52;5.82;;;3.53;;
62058;SDS011;48017;51.064;7.014;2022-07-06T03:41:18;7.68;;;3.88;;
62058;SDS011;48017;51.064;7.014;2022-07-06T03:43:43;6.50;;;3.85;;
62058;SDS011;48017;51.064;7.014;2022-07-06T03:46:09;21.23;;;13.73;;
62058;SDS011;48017;51.064;7.014;2022-07-06T03:48:34;9.85;;;6.20;;
62058;SDS011;48017;51.064;7.014;2022-07-06T03:50:59;9.65;;;5.43;;
62058;SDS011;48017;51.064;7.014;2022-07-06T03:53:25;11.82;;;4.30;;
62058;SDS011;48017;51.064;7.014;2022-07-06T03:55:51;11.63;;;4.63;;
62058;SDS011;48017;51.064;7.014;2022-07-06T03:58:35;6.32;;;4.00;;
62058;SDS011;48017;51.064;7.014;2022-07-06T04:01:01;7.70;;;3.65;;
62058;SDS011;48017;51.064;7.014;2022-07-06T04:03:26;5.55;;;3.17;;
62058;SDS011;48017;51.064;7.014;2022-07-06T04:05:52;6.95;;;3.20;;
62058;SDS011;48017;51.064;7.014;2022-07-06T04:08:18;7.18;;;3.15;;
62058;SDS011;48017;51.064;7.014;2022-07-06T04:10:44;4.95;;;2.88;;
62058;SDS011;48017;51.064;7.014;2022-07-06T04:13:10;6.70;;;3.45;;
62058;SDS011;48017;51.064;7.014;2022-07-06T04:15:35;5.88;;;3.25;;
62058;SDS011;48017;51.064;7.014;2022-07-06T04:18:00;8.10;;;3.97;;
62058;SDS011;48017;51.064;7.014;2022-07-06T04:20:26;9.45;;;3.35;;
62058;SDS011;48017;51.064;7.014;2022-07-06T04:22:52;9.82;;;3.42;;
62058;SDS011;48017;51.064;7.014;2022-07-06T04:25:18;8.02;;;3.80;;
62058;SDS011;48017;51.064;7.014;2022-07-06T04:27:43;5.28;;;3.20;;
62058;SDS011;48017;51.064;7.014;2022-07-06T04:30:09;7.97;;;3.70;;
62058;SDS011;48017;51.064;7.014;2022-07-06T04:32:36;20.83;;;9.35;;
62058;SDS011;48017;51.064;7.014;2022-07-06T04:35:02;12.82;;;7.00;;
62058;SDS011;48017;51.064;7.014;2022-07-06T04:37:28;9.60;;;5.53;;
62058;SDS011;48017;51.064;7.014;2022-07-06T04:39:53;13.98;;;6.95;;
62058;SDS011;48017;51.064;7.014;2022-07-06T04:42:18;8.35;;;4.05;;
62058;SDS011;48017;51.064;7.014;2022-07-06T04:44:44;6.32;;;3.50;;
62058;SDS011;48017;51.064;7.014;2022-07-06T04:47:10;6.57;;;3.28;;
62058;SDS011;48017;51.064;7.014;2022-07-06T04:49:36;7.57;;;3.45;;
62058;SDS011;48017;51.064;7.014;2022-07-06T04:52:01;7.20;;;3.20;;
62058;SDS011;48017;51.064;7.014;2022-07-06T04:54:27;9.63;;;3.58;;
62058;SDS011;48017;51.064;7.014;2022-07-06T04:56:52;7.10;;;3.55;;
62058;SDS011;48017;51.064;7.014;2022-07-06T04:59:18;7.80;;;3.40;;
62058;SDS011;48017;51.064;7.014;2022-07-06T05:01:43;14.50;;;7.32;;
62058;SDS011;48017;51.064;7.014;2022-07-06T05:04:08;23.73;;;9.02;;
62058;SDS011;48017;51.064;7.014;2022-07-06T05:06:34;25.52;;;10.00;;
62058;SDS011;48017;51.064;7.014;2022-07-06T05:08:59;8.02;;;4.05;;
62058;SDS011;48017;51.064;7.014;2022-07-06T05:11:26;8.20;;;3.58;;
62058;SDS011;48017;51.064;7.014;2022-07-06T05:13:51;6.35;;;3.28;;
62058;SDS011;48017;51.064;7.014;2022-07-06T05:16:17;8.45;;;3.13;;
62058;SDS011;48017;51.064;7.014;2022-07-06T05:18:42;9.48;;;3.50;;
62058;SDS011;48017;51.064;7.014;2022-07-06T05:21:08;9.57;;;4.00;;
62058;SDS011;48017;51.064;7.014;2022-07-06T05:23:33;7.63;;;3.78;;
62058;SDS011;48017;51.064;7.014;2022-07-06T05:25:58;8.50;;;3.30;;
62058;SDS011;48017;51.064;7.014;2022-07-06T05:28:24;9.57;;;3.90;;
62058;SDS011;48017;51.064;7.014;2022-07-06T05:30:49;8.98;;;3.50;;
62058;SDS011;48017;51.064;7.014;2022-07-06T05:33:15;7.50;;;3.50;;
62058;SDS011;48017;51.064;7.014;2022-07-06T05:35:40;7.70;;;3.65;;
62058;SDS011;48017;51.064;7.014;2022-07-06T05:38:05;8.07;;;3.67;;
62058;SDS011;48017;51.064;7.014;2022-07-06T05:40:31;5.93;;;3.58;;
62058;SDS011;48017;51.064;7.014;2022-07-06T05:42:56;7.63;;;3.72;;
62058;SDS011;48017;51.064;7.014;2022-07-06T05:45:21;10.05;;;3.92;;
62058;SDS011;48017;51.064;7.014;2022-07-06T05:47:47;6.43;;;3.40;;
62058;SDS011;48017;51.064;7.014;2022-07-06T05:50:32;7.18;;;3.55;;
62058;SDS011;48017;51.064;7.014;2022-07-06T05:52:58;11.38;;;3.08;;
62058;SDS011;48017;51.064;7.014;2022-07-06T05:55:25;10.52;;;3.13;;
62058;SDS011;48017;51.064;7.014;2022-07-06T05:57:51;13.77;;;3.80;;
62058;SDS011;48017;51.064;7.014;2022-07-06T06:00:18;5.20;;;3.20;;
62058;SDS011;48017;51.064;7.014;2022-07-06T06:02:44;9.82;;;3.97;;
62058;SDS011;48017;51.064;7.014;2022-07-06T06:05:11;13.55;;;4.00;;
62058;SDS011;48017;51.064;7.014;2022-07-06T06:07:38;9.93;;;3.60;;
62058;SDS011;48017;51.064;7.014;2022-07-06T06:10:04;7.53;;;3.70;;
62058;SDS011;48017;51.064;7.014;2022-07-06T06:12:32;8.93;;;3.45;;
62058;SDS011;48017;51.064;7.014;2022-07-06T06:14:57;7.13;;;3.33;;
62058;SDS011;48017;51.064;7.014;2022-07-06T06:17:23;10.77;;;4.20;;
62058;SDS011;48017;51.064;7.014;2022-07-06T06:19:48;9.73;;;3.40;;
62058;SDS011;48017;51.064;7.014;2022-07-06T06:22:13;8.82;;;3.50;;
62058;SDS011;48017;51.064;7.014;2022-07-06T06:24:39;9.10;;;3.60;;
62058;SDS011;48017;51.064;7.014;2022-07-06T06:27:04;7.43;;;3.50;;
62058;SDS011;48017;51.064;7.014;2022-07-06T06:29:30;8.90;;;3.30;;
62058;SDS011;48017;51.064;7.014;2022-07-06T06:31:55;7.72;;;3.00;;
62058;SDS011;48017;51.064;7.014;2022-07-06T06:34:21;6.95;;;3.20;;
62058;SDS011;48017;51.064;7.014;2022-07-06T06:36:46;5.78;;;2.67;;
62058;SDS011;48017;51.064;7.014;2022-07-06T06:39:11;6.60;;;3.15;;
62058;SDS011;48017;51.064;7.014;2022-07-06T06:41:37;6.20;;;3.08;;
62058;SDS011;48017;51.064;7.014;2022-07-06T06:44:02;6.30;;;2.50;;
62058;SDS011;48017;51.064;7.014;2022-07-06T06:46:28;7.07;;;2.95;;
62058;SDS011;48017;51.064;7.014;2022-07-06T06:48:53;8.75;;;2.67;;
62058;SDS011;48017;51.064;7.014;2022-07-06T06:51:18;9.63;;;2.78;;
62058;SDS011;48017;51.064;7.014;2022-07-06T06:53:45;8.93;;;2.70;;
62058;SDS011;48017;51.064;7.014;2022-07-06T06:56:11;10.10;;;2.63;;
62058;SDS011;48017;51.064;7.014;2022-07-06T06:58:36;6.63;;;2.10;;
62058;SDS011;48017;51.064;7.014;2022-07-06T07:01:02;7.53;;;2.50;;
62058;SDS011;48017;51.064;7.014;2022-07-06T07:03:27;6.68;;;1.95;;
62058;SDS011;48017;51.064;7.014;2022-07-06T07:05:52;10.15;;;2.13;;
62058;SDS011;48017;51.064;7.014;2022-07-06T07:08:18;7.03;;;2.30;;
62058;SDS011;48017;51.064;7.014;2022-07-06T07:10:43;9.00;;;2.33;;
62058;SDS011;48017;51.064;7.014;2022-07-06T07:13:08;5.25;;;2.65;;
62058;SDS011;48017;51.064;7.014;2022-07-06T07:15:34;6.32;;;1.98;;
62058;SDS011;48017;51.064;7.014;2022-07-06T07:18:00;7.95;;;2.10;;
62058;SDS011;48017;51.064;7.014;2022-07-06T07:20:25;6.93;;;2.13;;
62058;SDS011;48017;51.064;7.014;2022-07-06T07:22:51;6.20;;;1.83;;
62058;SDS011;48017;51.064;7.014;2022-07-06T07:25:16;5.75;;;1.55;;
62058;SDS011;48017;51.064;7.014;2022-07-06T07:27:42;6.55;;;1.67;;
62058;SDS011;48017;51.064;7.014;2022-07-06T07:30:07;4.80;;;1.70;;
62058;SDS011;48017;51.064;7.014;2022-07-06T07:32:33;4.65;;;1.50;;
62058;SDS011;48017;51.064;7.014;2022-07-06T07:34:59;5.35;;;1.48;;
62058;SDS011;48017;51.064;7.014;2022-07-06T07:37:24;8.48;;;1.65;;
62058;SDS011;48017;51.064;7.014;2022-07-06T07:39:49;5.10;;;1.40;;
62058;SDS011;48017;51.064;7.014;2022-07-06T07:42:15;6.88;;;1.10;;
62058;SDS011;48017;51.064;7.014;2022-07-06T07:44:40;4.15;;;1.08;;
62058;SDS011;48017;51.064;7.014;2022-07-06T07:47:06;4.63;;;1.15;;
62058;SDS011;48017;51.064;7.014;2022-07-06T07:49:31;7.10;;;1.25;;
62058;SDS011;48017;51.064;7.014;2022-07-06T07:51:57;6.13;;;1.42;;
62058;SDS011;48017;51.064;7.014;2022-07-06T07:54:23;5.65;;;1.52;;
62058;SDS011;48017;51.064;7.014;2022-07-06T07:56:48;5.13;;;1.23;;
62058;SDS011;48017;51.064;7.014;2022-07-06T07:59:13;8.98;;;1.33;;
62058;SDS011;48017;51.064;7.014;2022-07-06T08:01:39;4.43;;;1.23;;
62058;SDS011;48017;51.064;7.014;2022-07-06T08:04:04;8.55;;;1.40;;
62058;SDS011;48017;51.064;7.014;2022-07-06T08:06:30;4.68;;;1.30;;
62058;SDS011;48017;51.064;7.014;2022-07-06T08:08:56;5.13;;;1.20;;
62058;SDS011;48017;51.064;7.014;2022-07-06T08:11:21;5.43;;;1.30;;
62058;SDS011;48017;51.064;7.014;2022-07-06T08:13:47;3.13;;;1.15;;
62058;SDS011;48017;51.064;7.014;2022-07-06T08:16:12;5.25;;;1.40;;
62058;SDS011;48017;51.064;7.014;2022-07-06T08:18:38;4.57;;;0.93;;
62058;SDS011;48017;51.064;7.014;2022-07-06T08:21:03;5.15;;;1.02;;
62058;SDS011;48017;51.064;7.014;2022-07-06T08:23:29;5.20;;;1.40;;
62058;SDS011;48017;51.064;7.014;2022-07-06T08:25:54;5.90;;;1.30;;
62058;SDS011;48017;51.064;7.014;2022-07-06T08:28:20;8.13;;;1.38;;
62058;SDS011;48017;51.064;7.014;2022-07-06T08:30:45;4.47;;;1.10;;
62058;SDS011;48017;51.064;7.014;2022-07-06T08:33:11;3.25;;;1.25;;
62058;SDS011;48017;51.064;7.014;2022-07-06T08:35:36;5.65;;;1.20;;
62058;SDS011;48017;51.064;7.014;2022-07-06T08:38:01;7.43;;;1.58;;
62058;SDS011;48017;51.064;7.014;2022-07-06T08:40:31;8.23;;;1.90;;
62058;SDS011;48017;51.064;7.014;2022-07-06T08:43:00;11.40;;;1.70;;
62058;SDS011;48017;51.064;7.014;2022-07-06T08:45:25;9.32;;;1.77;;
62058;SDS011;48017;51.064;7.014;2022-07-06T08:47:53;6.97;;;2.15;;
62058;SDS011;48017;51.064;7.014;2022-07-06T08:50:19;3.83;;;1.30;;
62058;SDS011;48017;51.064;7.014;2022-07-06T08:52:48;4.50;;;1.00;;
62058;SDS011;48017;51.064;7.014;2022-07-06T08:55:14;4.78;;;1.00;;
62058;SDS011;48017;51.064;7.014;2022-07-06T08:57:41;4.45;;;0.98;;
62058;SDS011;48017;51.064;7.014;2022-07-06T09:00:09;4.65;;;0.95;;
62058;SDS011;48017;51.064;7.014;2022-07-06T09:02:35;5.65;;;1.15;;
62058;SDS011;48017;51.064;7.014;2022-07-06T09:05:02;8.65;;;1.95;;
62058;SDS011;48017;51.064;7.014;2022-07-06T09:07:29;5.43;;;2.38;;
62058;SDS011;48017;51.064;7.014;2022-07-06T09:09:55;9.57;;;3.70;;
62058;SDS011;48017;51.064;7.014;2022-07-06T09:12:21;3.13;;;0.90;;
62058;SDS011;48017;51.064;7.014;2022-07-06T09:14:46;5.57;;;1.23;;
62058;SDS011;48017;51.064;7.014;2022-07-06T09:17:12;4.88;;;1.10;;
62058;SDS011;48017;51.064;7.014;2022-07-06T09:19:38;4.63;;;1.00;;
62058;SDS011;48017;51.064;7.014;2022-07-06T09:22:03;4.10;;;1.17;;
62058;SDS011;48017;51.064;7.014;2022-07-06T09:24:29;6.15;;;2.00;;
62058;SDS011;48017;51.064;7.014;2022-07-06T09:26:57;5.07;;;1.83;;
62058;SDS011;48017;51.064;7.014;2022-07-06T09:29:32;8.25;;;1.75;;
62058;SDS011;48017;51.064;7.014;2022-07-06T09:34:22;5.47;;;0.88;;
62058;SDS011;48017;51.064;7.014;2022-07-06T09:36:48;1.85;;;0.70;;
62058;SDS011;48017;51.064;7.014;2022-07-06T09:39:18;3.20;;;0.63;;
62058;SDS011;48017;51.064;7.014;2022-07-06T09:41:51;3.28;;;0.98;;
62058;SDS011;48017;51.064;7.014;2022-07-06T09:44:20;3.42;;;0.82;;
62058;SDS011;48017;51.064;7.014;2022-07-06T09:46:46;1.60;;;0.60;;
62058;SDS011;48017;51.064;7.014;2022-07-06T09:49:15;3.58;;;0.75;;
62058;SDS011;48017;51.064;7.014;2022-07-06T09:51:43;3.03;;;0.75;;
62058;SDS011;48017;51.064;7.014;2022-07-06T09:54:09;4.22;;;0.95;;
62058;SDS011;48017;51.064;7.014;2022-07-06T09:56:36;5.32;;;0.95;;
62058;SDS011;48017;51.064;7.014;2022-07-06T09:59:05;3.60;;;0.90;;
62058;SDS011;48017;51.064;7.014;2022-07-06T10:01:33;5.40;;;1.08;;
62058;SDS011;48017;51.064;7.014;2022-07-06T10:03:58;3.25;;;0.98;;
62058;SDS011;48017;51.064;7.014;2022-07-06T10:06:24;9.30;;;1.55;;
62058;SDS011;48017;51.064;7.014;2022-07-06T10:08:50;2.88;;;0.88;;
62058;SDS011;48017;51.064;7.014;2022-07-06T10:11:16;4.82;;;0.80;;
62058;SDS011;48017;51.064;7.014;2022-07-06T10:13:42;5.68;;;0.90;;
62058;SDS011;48017;51.064;7.014;2022-07-06T10:16:11;4.28;;;0.90;;
62058;SDS011;48017;51.064;7.014;2022-07-06T10:18:37;7.90;;;1.45;;
62058;SDS011;48017;51.064;7.014;2022-07-06T10:21:03;2.20;;;0.80;;
62058;SDS011;48017;51.064;7.014;2022-07-06T10:23:28;8.10;;;1.00;;
62058;SDS011;48017;51.064;7.014;2022-07-06T10:25:55;7.78;;;1.10;;
62058;SDS011;48017;51.064;7.014;2022-07-06T10:28:22;4.50;;;0.80;;
62058;SDS011;48017;51.064;7.014;2022-07-06T10:30:49;7.32;;;1.08;;
62058;SDS011;48017;51.064;7.014;2022-07-06T10:33:15;3.00;;;0.80;;
62058;SDS011;48017;51.064;7.014;2022-07-06T10:35:41;3.50;;;0.70;;
62058;SDS011;48017;51.064;7.014;2022-07-06T10:38:09;3.42;;;1.00;;
62058;SDS011;48017;51.064;7.014;2022-07-06T10:40:39;3.20;;;0.85;;
62058;SDS011;48017;51.064;7.014;2022-07-06T10:43:30;3.92;;;0.70;;
62058;SDS011;48017;51.064;7.014;2022-07-06T10:46:04;4.05;;;0.80;;
62058;SDS011;48017;51.064;7.014;2022-07-06T10:48:35;6.68;;;0.88;;
62058;SDS011;48017;51.064;7.014;2022-07-06T10:51:01;2.83;;;0.70;;
62058;SDS011;48017;51.064;7.014;2022-07-06T10:53:33;4.38;;;0.82;;
62058;SDS011;48017;51.064;7.014;2022-07-06T10:56:02;3.47;;;0.80;;
62058;SDS011;48017;51.064;7.014;2022-07-06T10:58:48;4.20;;;1.02;;
62058;SDS011;48017;51.064;7.014;2022-07-06T11:01:18;11.32;;;1.00;;
62058;SDS011;48017;51.064;7.014;2022-07-06T11:03:46;5.32;;;1.00;;
62058;SDS011;48017;51.064;7.014;2022-07-06T11:06:16;6.40;;;1.40;;
62058;SDS011;48017;51.064;7.014;2022-07-06T11:09:02;5.30;;;1.20;;
62058;SDS011;48017;51.064;7.014;2022-07-06T11:14:10;3.70;;;1.13;;
62058;SDS011;48017;51.064;7.014;2022-07-06T11:19:14;3.53;;;1.45;;
62058;SDS011;48017;51.064;7.014;2022-07-06T11:21:50;10.30;;;2.90;;
62058;SDS011;48017;51.064;7.014;2022-07-06T11:26:48;6.85;;;1.30;;
62058;SDS011;48017;51.064;7.014;2022-07-06T11:29:15;4.38;;;1.30;;
62058;SDS011;48017;51.064;7.014;2022-07-06T11:31:43;6.22;;;1.40;;
62058;SDS011;48017;51.064;7.014;2022-07-06T11:34:11;4.60;;;1.40;;
62058;SDS011;48017;51.064;7.014;2022-07-06T11:36:39;7.32;;;1.30;;
62058;SDS011;48017;51.064;7.014;2022-07-06T11:39:06;2.67;;;1.13;;
62058;SDS011;48017;51.064;7.014;2022-07-06T11:41:31;4.10;;;1.30;;
62058;SDS011;48017;51.064;7.014;2022-07-06T11:43:58;3.75;;;1.40;;
62058;SDS011;48017;51.064;7.014;2022-07-06T11:46:27;4.00;;;1.10;;
62058;SDS011;48017;51.064;7.014;2022-07-06T11:48:57;3.45;;;1.30;;
62058;SDS011;48017;51.064;7.014;2022-07-06T11:51:24;4.45;;;1.48;;
62058;SDS011;48017;51.064;7.014;2022-07-06T11:53:53;2.38;;;1.20;;
62058;SDS011;48017;51.064;7.014;2022-07-06T11:56:25;10.30;;;3.80;;
62058;SDS011;48017;51.064;7.014;2022-07-06T11:58:52;7.70;;;1.42;;
62058;SDS011;48017;51.064;7.014;2022-07-06T12:01:23;4.43;;;1.20;;
62058;SDS011;48017;51.064;7.014;2022-07-06T12:03:58;8.55;;;1.00;;
62058;SDS011;48017;51.064;7.014;2022-07-06T12:06:25;6.20;;;1.10;;
62058;SDS011;48017;51.064;7.014;2022-07-06T12:08:52;5.28;;;1.10;;
62058;SDS011;48017;51.064;7.014;2022-07-06T12:11:19;23.23;;;2.15;;
62058;SDS011;48017;51.064;7.014;2022-07-06T12:13:46;2.92;;;1.00;;
62058;SDS011;48017;51.064;7.014;2022-07-06T12:16:12;6.25;;;1.00;;
62058;SDS011;48017;51.064;7.014;2022-07-06T12:21:09;2.70;;;0.63;;
62058;SDS011;48017;51.064;7.014;2022-07-06T12:23:46;4.63;;;1.10;;
62058;SDS011;48017;51.064;7.014;2022-07-06T12:26:14;6.82;;;1.08;;
62058;SDS011;48017;51.064;7.014;2022-07-06T12:28:41;7.13;;;0.90;;
62058;SDS011;48017;51.064;7.014;2022-07-06T12:31:08;2.77;;;0.77;;
62058;SDS011;48017;51.064;7.014;2022-07-06T12:33:34;6.82;;;1.10;;
62058;SDS011;48017;51.064;7.014;2022-07-06T12:36:09;2.47;;;0.80;;
62058;SDS011;48017;51.064;7.014;2022-07-06T12:38:36;6.03;;;1.00;;
62058;SDS011;48017;51.064;7.014;2022-07-06T12:41:09;4.72;;;0.85;;
62058;SDS011;48017;51.064;7.014;2022-07-06T12:43:35;5.45;;;1.10;;
62058;SDS011;48017;51.064;7.014;2022-07-06T12:48:56;2.75;;;0.88;;
62058;SDS011;48017;51.064;7.014;2022-07-06T12:51:23;4.53;;;1.08;;
62058;SDS011;48017;51.064;7.014;2022-07-06T12:53:49;3.42;;;0.90;;
62058;SDS011;48017;51.064;7.014;2022-07-06T12:56:14;3.08;;;1.23;;
62058;SDS011;48017;51.064;7.014;2022-07-06T12:58:59;4.80;;;1.15;;
62058;SDS011;48017;51.064;7.014;2022-07-06T13:01:25;6.50;;;0.93;;
62058;SDS011;48017;51.064;7.014;2022-07-06T13:04:00;3.33;;;0.93;;
62058;SDS011;48017;51.064;7.014;2022-07-06T13:06:29;5.10;;;1.10;;
62058;SDS011;48017;51.064;7.014;2022-07-06T13:08:56;5.18;;;1.13;;
62058;SDS011;48017;51.064;7.014;2022-07-06T13:11:22;1.65;;;0.80;;
62058;SDS011;48017;51.064;7.014;2022-07-06T13:13:47;2.78;;;1.00;;
62058;SDS011;48017;51.064;7.014;2022-07-06T13:16:12;2.60;;;0.90;;
62058;SDS011;48017;51.064;7.014;2022-07-06T13:18:38;2.53;;;1.00;;
62058;SDS011;48017;51.064;7.014;2022-07-06T13:21:03;2.13;;;0.93;;
62058;SDS011;48017;51.064;7.014;2022-07-06T13:23:29;3.60;;;1.55;;
62058;SDS011;48017;51.064;7.014;2022-07-06T13:25:54;4.60;;;1.30;;
62058;SDS011;48017;51.064;7.014;2022-07-06T13:28:19;7.05;;;1.20;;
62058;SDS011;48017;51.064;7.014;2022-07-06T13:30:44;3.50;;;0.80;;
62058;SDS011;48017;51.064;7.014;2022-07-06T13:33:10;3.45;;;0.85;;
62058;SDS011;48017;51.064;7.014;2022-07-06T13:35:35;4.07;;;1.08;;
62058;SDS011;48017;51.064;7.014;2022-07-06T13:38:00;3.97;;;0.98;;
62058;SDS011;48017;51.064;7.014;2022-07-06T13:40:26;1.70;;;0.77;;
62058;SDS011;48017;51.064;7.014;2022-07-06T13:42:52;3.55;;;0.90;;
62058;SDS011;48017;51.064;7.014;2022-07-06T13:45:19;5.00;;;1.00;;
62058;SDS011;48017;51.064;7.014;2022-07-06T13:47:45;5.78;;;1.20;;
62058;SDS011;48017;51.064;7.014;2022-07-06T13:50:10;4.00;;;0.98;;
62058;SDS011;48017;51.064;7.014;2022-07-06T13:52:35;2.90;;;0.90;;
62058;SDS011;48017;51.064;7.014;2022-07-06T13:55:01;7.70;;;1.10;;
62058;SDS011;48017;51.064;7.014;2022-07-06T13:57:26;7.65;;;1.10;;
62058;SDS011;48017;51.064;7.014;2022-07-06T13:59:52;3.13;;;0.77;;
62058;SDS011;48017;51.064;7.014;2022-07-06T14:02:17;6.80;;;0.98;;
62058;SDS011;48017;51.064;7.014;2022-07-06T14:04:42;4.45;;;1.38;;
62058;SDS011;48017;51.064;7.014;2022-07-06T14:07:08;5.25;;;1.00;;
62058;SDS011;48017;51.064;7.014;2022-07-06T14:09:33;3.15;;;1.48;;
62058;SDS011;48017;51.064;7.014;2022-07-06T14:11:58;5.63;;;1.00;;
62058;SDS011;48017;51.064;7.014;2022-07-06T14:14:25;5.40;;;1.10;;
62058;SDS011;48017;51.064;7.014;2022-07-06T14:16:50;4.13;;;0.98;;
62058;SDS011;48017;51.064;7.014;2022-07-06T14:19:16;3.50;;;0.90;;
62058;SDS011;48017;51.064;7.014;2022-07-06T14:21:41;5.45;;;0.98;;
62058;SDS011;48017;51.064;7.014;2022-07-06T14:24:07;3.97;;;1.00;;
62058;SDS011;48017;51.064;7.014;2022-07-06T14:26:32;5.40;;;1.00;;
62058;SDS011;48017;51.064;7.014;2022-07-06T14:28:58;3.38;;;0.80;;
62058;SDS011;48017;51.064;7.014;2022-07-06T14:31:24;3.70;;;1.00;;
62058;SDS011;48017;51.064;7.014;2022-07-06T14:33:49;4.43;;;1.20;;
62058;SDS011;48017;51.064;7.014;2022-07-06T14:36:15;4.68;;;1.25;;
62058;SDS011;48017;51.064;7.014;2022-07-06T14:38:40;4.43;;;0.90;;
62058;SDS011;48017;51.064;7.014;2022-07-06T14:41:06;3.42;;;1.00;;
62058;SDS011;48017;51.064;7.014;2022-07-06T14:43:31;4.25;;;0.80;;
62058;SDS011;48017;51.064;7.014;2022-07-06T14:45:56;6.60;;;1.10;;
62058;SDS011;48017;51.064;7.014;2022-07-06T14:48:22;9.57;;;2.35;;
62058;SDS011;48017;51.064;7.014;2022-07-06T14:50:47;3.53;;;0.90;;
62058;SDS011;48017;51.064;7.014;2022-07-06T14:53:13;4.28;;;0.85;;
62058;SDS011;48017;51.064;7.014;2022-07-06T14:55:38;6.22;;;1.30;;
62058;SDS011;48017;51.064;7.014;2022-07-06T14:58:03;6.57;;;0.93;;
62058;SDS011;48017;51.064;7.014;2022-07-06T15:00:29;4.38;;;0.80;;